Time;durP1;ratioP1;P1;durP2;ratioP2;P2;SDS_P1;SDS_P2;PMS_P1;PMS_P2;Temp;Humidity;BMP_temperature;BMP_pressure;BME280_temperature;BME280_humidity;BME280_pressure;Samples;Min_cycle;Max_cycle;Signal;HPM_P1;HPM_P2
2021/06/23 00:02:14;;;;;;;24.57;22.00;;;14.70;99.90;;;;;;5015201;28;20455;-66
2021/06/23 00:04:42;;;;;;;25.60;23.40;;;14.70;99.90;;;;;;5015084;28;20863;-65
2021/06/23 00:07:10;;;;;;;24.77;22.33;;;14.70;99.90;;;;;;5014892;28;21094;-65
2021/06/23 00:09:37;;;;;;;24.00;21.20;;;14.70;99.90;;;;;;5014887;28;20820;-66
2021/06/23 00:12:04;;;;;;;24.67;22.57;;;14.70;99.90;;;;;;5015126;28;20446;-65
2021/06/23 00:14:31;;;;;;;24.30;22.20;;;14.70;99.90;;;;;;5015168;28;20488;-67
2021/06/23 00:16:58;;;;;;;25.20;22.80;;;14.70;99.90;;;;;;5014722;28;20437;-65
2021/06/23 00:19:25;;;;;;;23.40;21.50;;;14.70;99.90;;;;;;5014706;28;20449;-65
2021/06/23 00:21:52;;;;;;;25.33;22.80;;;14.70;99.90;;;;;;5014513;28;20450;-66
2021/06/23 00:24:20;;;;;;;26.53;23.97;;;14.70;99.90;;;;;;5014567;28;20496;-66
2021/06/23 00:26:46;;;;;;;23.80;21.10;;;14.70;99.90;;;;;;5014728;28;20484;-66
2021/06/23 00:29:13;;;;;;;25.10;22.70;;;14.70;99.90;;;;;;5014685;28;20445;-65
2021/06/23 00:31:40;;;;;;;23.20;20.83;;;14.70;99.90;;;;;;5014619;28;20615;-69
2021/06/23 00:34:10;;;;;;;22.90;20.53;;;14.70;99.90;;;;;;5014733;28;20468;-65
2021/06/23 00:36:37;;;;;;;24.10;21.90;;;14.70;99.90;;;;;;5014299;28;20521;-66
2021/06/23 00:39:04;;;;;;;25.00;22.80;;;14.70;99.90;;;;;;5014358;28;20449;-65
2021/06/23 00:41:33;;;;;;;25.60;22.90;;;14.70;99.90;;;;;;5014309;28;20445;-66
2021/06/23 00:44:00;;;;;;;26.10;23.40;;;14.70;99.90;;;;;;4994900;28;20856;-65
2021/06/23 00:46:27;;;;;;;25.03;22.60;;;14.70;99.90;;;;;;4994782;28;20509;-66
2021/06/23 00:48:56;;;;;;;23.53;21.60;;;14.70;99.90;;;;;;4996056;28;20446;-66
2021/06/23 00:51:24;;;;;;;24.63;21.03;;;14.70;99.90;;;;;;5014286;28;20456;-66
2021/06/23 00:53:50;;;;;;;24.30;21.80;;;14.60;99.90;;;;;;5014196;28;20478;-66
2021/06/23 00:56:17;;;;;;;24.57;22.37;;;14.60;99.90;;;;;;5014310;28;20442;-67
2021/06/23 00:58:49;;;;;;;25.17;22.43;;;14.60;99.90;;;;;;5013235;28;20450;-66
2021/06/23 01:01:16;;;;;;;24.47;21.97;;;14.60;99.90;;;;;;4994568;28;20822;-67
2021/06/23 01:03:43;;;;;;;23.17;20.67;;;14.60;99.90;;;;;;4993974;28;21003;-65
2021/06/23 01:06:10;;;;;;;25.57;23.37;;;14.60;99.90;;;;;;4994474;28;20851;-65
2021/06/23 01:08:37;;;;;;;24.40;21.97;;;14.70;99.90;;;;;;4994287;28;20446;-65
2021/06/23 01:11:07;;;;;;;23.07;21.10;;;14.60;99.90;;;;;;5012956;28;20446;-66
2021/06/23 01:13:37;;;;;;;23.77;21.27;;;14.60;99.90;;;;;;5013875;28;20457;-65
2021/06/23 01:16:07;;;;;;;22.53;20.53;;;14.60;99.90;;;;;;5013976;28;20446;-66
2021/06/23 01:18:36;;;;;;;23.50;21.30;;;14.60;99.90;;;;;;5013915;28;20467;-66
2021/06/23 01:21:04;;;;;;;23.33;21.23;;;14.60;99.90;;;;;;5011151;28;20819;-65
2021/06/23 01:23:32;;;;;;;23.63;21.17;;;14.60;99.90;;;;;;5013543;28;20454;-66
2021/06/23 01:25:59;;;;;;;23.50;21.57;;;14.50;99.90;;;;;;5013708;28;20828;-67
2021/06/23 01:28:25;;;;;;;22.30;20.50;;;14.50;99.90;;;;;;5013399;28;20821;-65
2021/06/23 01:30:56;;;;;;;22.93;21.17;;;14.50;99.90;;;;;;5013478;28;20446;-65
2021/06/23 01:33:23;;;;;;;25.33;23.13;;;14.50;99.90;;;;;;5013545;28;20435;-67
2021/06/23 01:35:50;;;;;;;22.30;20.53;;;14.50;99.90;;;;;;5013676;28;20446;-66
2021/06/23 01:38:16;;;;;;;24.20;22.07;;;14.60;99.90;;;;;;5013326;28;20951;-65
2021/06/23 01:40:44;;;;;;;22.40;20.40;;;14.50;99.90;;;;;;5013131;28;20485;-67
2021/06/23 01:43:12;;;;;;;22.33;20.40;;;14.50;99.90;;;;;;5013349;28;20449;-67
2021/06/23 01:45:40;;;;;;;22.20;20.10;;;14.50;99.90;;;;;;5013325;28;20474;-65
2021/06/23 01:48:08;;;;;;;22.67;20.87;;;14.50;99.90;;;;;;5012988;28;20450;-65
2021/06/23 01:50:35;;;;;;;23.40;21.20;;;14.50;99.90;;;;;;5013062;28;20454;-66
2021/06/23 01:53:01;;;;;;;22.00;20.10;;;14.50;99.90;;;;;;5013122;28;20446;-68
2021/06/23 01:55:28;;;;;;;23.10;21.10;;;14.50;99.90;;;;;;5013070;28;20979;-66
2021/06/23 01:58:01;;;;;;;23.27;21.37;;;14.50;99.90;;;;;;5012742;28;20450;-64
2021/06/23 02:00:33;;;;;;;23.77;21.57;;;14.50;99.90;;;;;;5012956;28;20457;-65
2021/06/23 02:03:05;;;;;;;23.47;21.47;;;14.40;99.90;;;;;;5012966;28;20477;-66
2021/06/23 02:05:42;;;;;;;19.97;18.07;;;14.40;99.90;;;;;;5012939;28;20466;-69
2021/06/23 02:08:17;;;;;;;22.47;20.17;;;14.40;99.90;;;;;;5012541;28;20450;-66
2021/06/23 02:11:04;;;;;;;23.57;21.47;;;14.40;99.90;;;;;;5012106;28;20453;-66
2021/06/23 02:13:54;;;;;;;23.53;20.50;;;14.40;99.90;;;;;;5011801;28;20461;-66
2021/06/23 02:16:24;;;;;;;20.30;18.57;;;14.40;99.90;;;;;;5012564;28;20438;-65
2021/06/23 02:18:51;;;;;;;25.10;22.73;;;14.40;99.90;;;;;;4993097;28;20445;-65
2021/06/23 02:21:19;;;;;;;23.33;21.23;;;14.30;99.90;;;;;;4993006;28;20448;-65
2021/06/23 02:23:46;;;;;;;21.97;20.33;;;14.30;99.90;;;;;;4992616;28;20478;-65
2021/06/23 02:26:14;;;;;;;22.47;20.37;;;14.30;99.90;;;;;;4994433;28;20487;-66
2021/06/23 02:28:42;;;;;;;22.87;20.47;;;14.30;99.90;;;;;;5012429;28;20446;-65
2021/06/23 02:31:11;;;;;;;25.83;20.67;;;14.30;99.90;;;;;;5012444;28;20445;-65
2021/06/23 02:33:38;;;;;;;21.93;19.87;;;14.40;99.90;;;;;;5012432;28;20478;-67
2021/06/23 02:36:05;;;;;;;21.70;19.80;;;14.30;99.90;;;;;;5012128;28;20457;-66
2021/06/23 02:38:33;;;;;;;22.67;20.87;;;14.30;99.90;;;;;;5002555;28;20457;-65
2021/06/23 02:41:00;;;;;;;21.57;19.33;;;14.30;99.90;;;;;;5012087;28;20449;-69
2021/06/23 02:43:27;;;;;;;21.47;19.27;;;14.30;99.90;;;;;;5012439;28;20454;-66
2021/06/23 02:45:54;;;;;;;25.23;22.83;;;14.30;99.90;;;;;;5012183;28;20450;-67
2021/06/23 02:48:25;;;;;;;20.80;19.10;;;14.30;99.90;;;;;;5011583;28;20966;-66
2021/06/23 02:50:59;;;;;;;21.20;19.47;;;14.30;99.90;;;;;;5011917;28;20446;-65
2021/06/23 02:53:28;;;;;;;20.57;18.97;;;14.30;99.90;;;;;;5012208;28;20446;-67
2021/06/23 02:55:56;;;;;;;21.53;19.60;;;14.20;99.90;;;;;;5012041;28;20549;-67
2021/06/23 02:58:23;;;;;;;21.17;19.40;;;14.30;99.90;;;;;;5011897;28;20456;-65
2021/06/23 03:00:51;;;;;;;22.20;20.33;;;14.20;99.90;;;;;;5011946;28;20865;-65
2021/06/23 03:03:18;;;;;;;23.00;20.57;;;14.20;99.90;;;;;;5011662;28;20770;-65
2021/06/23 03:05:46;;;;;;;25.13;20.50;;;14.20;99.90;;;;;;5011901;28;20453;-67
2021/06/23 03:08:13;;;;;;;21.47;19.70;;;14.20;99.90;;;;;;5011416;28;20488;-66
2021/06/23 03:10:40;;;;;;;20.47;18.87;;;14.20;99.90;;;;;;5011744;28;20441;-65
2021/06/23 03:13:06;;;;;;;21.67;19.60;;;14.20;99.90;;;;;;5011838;28;21030;-65
2021/06/23 03:15:33;;;;;;;24.83;22.47;;;14.30;99.90;;;;;;5011876;28;20481;-67
2021/06/23 03:18:02;;;;;;;22.83;20.73;;;14.30;99.90;;;;;;5011499;28;20503;-68
2021/06/23 03:20:29;;;;;;;26.50;23.50;;;14.30;99.90;;;;;;5011280;28;20458;-66
2021/06/23 03:22:57;;;;;;;21.80;20.00;;;14.30;99.90;;;;;;5011637;28;20477;-67
2021/06/23 03:25:24;;;;;;;23.30;21.30;;;14.30;99.90;;;;;;5011577;28;20477;-67
2021/06/23 03:27:54;;;;;;;21.87;20.17;;;14.30;99.90;;;;;;5011356;28;21019;-65
2021/06/23 03:30:23;;;;;;;25.20;22.67;;;14.30;99.90;;;;;;5011627;28;20854;-65
2021/06/23 03:32:50;;;;;;;24.90;22.80;;;14.40;99.90;;;;;;5011711;28;20430;-66
2021/06/23 03:35:19;;;;;;;26.13;23.57;;;14.30;99.90;;;;;;5011520;28;20986;-66
2021/06/23 03:37:46;;;;;;;24.30;21.63;;;14.30;99.90;;;;;;5011374;28;20446;-66
2021/06/23 03:40:15;;;;;;;22.90;20.90;;;14.30;99.90;;;;;;5011316;28;20462;-65
2021/06/23 03:42:41;;;;;;;24.80;22.93;;;14.30;99.90;;;;;;5011089;28;21063;-65
2021/06/23 03:45:09;;;;;;;23.47;21.47;;;14.40;99.90;;;;;;5011521;28;20470;-68
2021/06/23 03:47:36;;;;;;;24.23;21.87;;;14.30;99.90;;;;;;5011254;28;20496;-67
2021/06/23 03:50:03;;;;;;;23.93;21.50;;;14.40;99.90;;;;;;5011072;28;20457;-68
2021/06/23 03:52:29;;;;;;;23.00;20.60;;;14.30;99.90;;;;;;5011484;28;20453;-66
2021/06/23 03:54:56;;;;;;;25.53;21.10;;;14.40;99.90;;;;;;5011326;28;20470;-66
2021/06/23 03:57:24;;;;;;;21.83;20.00;;;14.40;99.90;;;;;;5011115;28;20449;-67
2021/06/23 03:59:52;;;;;;;24.10;21.63;;;14.40;99.90;;;;;;5011239;28;20445;-65
2021/06/23 04:02:18;;;;;;;23.77;22.03;;;14.40;99.90;;;;;;5011278;28;20446;-65
2021/06/23 04:04:46;;;;;;;25.23;21.60;;;14.40;99.90;;;;;;5010980;28;20468;-66
2021/06/23 04:07:13;;;;;;;22.77;20.53;;;14.40;99.90;;;;;;5011313;28;20495;-65
2021/06/23 04:09:39;;;;;;;24.30;22.10;;;14.40;99.90;;;;;;5011162;28;20955;-67
2021/06/23 04:12:07;;;;;;;22.43;20.53;;;14.40;99.90;;;;;;5011203;28;20453;-67
2021/06/23 04:14:36;;;;;;;24.70;22.50;;;14.50;99.90;;;;;;5011100;28;20469;-66
2021/06/23 04:17:02;;;;;;;24.20;22.10;;;14.50;99.90;;;;;;5011002;28;20450;-66
2021/06/23 04:19:29;;;;;;;23.00;21.13;;;14.50;99.90;;;;;;5010611;28;20958;-64
2021/06/23 04:21:56;;;;;;;24.33;22.10;;;14.50;99.90;;;;;;5010991;28;20840;-68
2021/06/23 04:24:23;;;;;;;23.33;21.43;;;14.50;99.90;;;;;;5009575;28;20488;-69
2021/06/23 04:26:49;;;;;;;22.37;20.57;;;14.50;99.90;;;;;;5009901;28;20477;-67
2021/06/23 04:29:16;;;;;;;23.90;21.90;;;14.70;99.90;;;;;;5009894;28;20548;-67
2021/06/23 04:31:44;;;;;;;21.87;20.10;;;15.10;99.90;;;;;;5011258;28;20449;-67
2021/06/23 04:34:11;;;;;;;26.40;24.00;;;15.40;99.90;;;;;;5014547;28;20466;-67
2021/06/23 04:36:38;;;;;;;26.27;23.77;;;15.40;99.90;;;;;;5014623;28;20488;-66
2021/06/23 04:39:05;;;;;;;24.67;22.67;;;15.40;99.90;;;;;;5014627;28;20932;-67
2021/06/23 04:41:32;;;;;;;26.67;24.03;;;15.50;99.90;;;;;;5014655;28;20454;-67
2021/06/23 04:43:58;;;;;;;23.90;22.00;;;15.40;99.90;;;;;;5014693;28;20536;-67
2021/06/23 04:46:25;;;;;;;25.97;24.10;;;15.40;99.90;;;;;;5014175;28;20457;-67
2021/06/23 04:48:53;;;;;;;26.60;24.30;;;15.50;99.90;;;;;;5014428;28;20450;-67
2021/06/23 04:51:20;;;;;;;24.67;22.27;;;15.60;99.90;;;;;;5014417;28;20454;-67
2021/06/23 04:53:47;;;;;;;23.67;22.03;;;15.60;99.90;;;;;;5014385;28;20987;-67
2021/06/23 04:56:13;;;;;;;23.70;22.20;;;15.60;99.90;;;;;;5013970;28;20830;-67
2021/06/23 04:58:40;;;;;;;25.07;23.13;;;15.70;99.90;;;;;;5014264;28;20450;-67
2021/06/23 05:01:07;;;;;;;25.93;24.07;;;15.60;99.90;;;;;;5014218;28;20461;-67
2021/06/23 05:03:33;;;;;;;28.10;25.90;;;15.80;99.90;;;;;;5014210;28;20457;-67
2021/06/23 05:06:01;;;;;;;25.70;23.77;;;15.90;99.90;;;;;;5013989;28;20446;-67
2021/06/23 05:08:29;;;;;;;24.53;22.97;;;15.90;99.90;;;;;;5014228;28;20490;-67
2021/06/23 05:10:56;;;;;;;25.73;24.03;;;16.00;99.90;;;;;;5014041;28;20450;-67
2021/06/23 05:13:23;;;;;;;26.67;24.60;;;16.20;99.90;;;;;;5013947;28;20951;-67
2021/06/23 05:15:51;;;;;;;25.13;23.30;;;16.10;99.90;;;;;;5013711;28;20969;-67
2021/06/23 05:18:19;;;;;;;25.63;24.03;;;16.30;99.90;;;;;;5013955;28;20485;-67
2021/06/23 05:20:46;;;;;;;25.60;24.00;;;16.30;99.90;;;;;;5013787;28;20461;-67
2021/06/23 05:23:14;;;;;;;25.83;24.13;;;16.50;99.90;;;;;;5013926;28;20457;-67
2021/06/23 05:25:40;;;;;;;26.37;24.70;;;16.40;99.90;;;;;;5020644;23;20501;-65
2021/06/23 05:28:07;;;;;;;26.30;24.60;;;16.40;99.90;;;;;;4982145;28;20491;-65
2021/06/23 05:30:34;;;;;;;25.93;24.33;;;16.50;99.90;;;;;;4974591;28;20522;-66
2021/06/23 05:33:00;;;;;;;25.00;23.60;;;16.60;99.90;;;;;;4984837;28;20447;-65
2021/06/23 05:35:27;;;;;;;25.83;23.90;;;16.80;99.90;;;;;;4994056;28;20466;-65
2021/06/23 05:37:54;;;;;;;25.13;23.07;;;16.90;99.90;;;;;;4994178;28;20443;-65
2021/06/23 05:40:22;;;;;;;26.77;24.80;;;17.00;99.90;;;;;;4993716;28;20438;-66
2021/06/23 05:42:49;;;;;;;26.43;24.67;;;17.10;99.90;;;;;;4993391;28;20444;-65
2021/06/23 05:45:16;;;;;;;29.17;26.70;;;17.00;99.90;;;;;;4993613;28;20466;-65
2021/06/23 05:47:42;;;;;;;25.83;24.07;;;16.80;99.90;;;;;;4993820;28;20478;-65
2021/06/23 05:50:10;;;;;;;26.70;25.00;;;16.90;99.90;;;;;;4993539;28;20976;-65
2021/06/23 05:52:36;;;;;;;26.37;24.70;;;17.00;99.90;;;;;;4993487;28;20457;-66
2021/06/23 05:55:04;;;;;;;24.67;23.00;;;17.10;99.90;;;;;;4993616;28;20513;-66
2021/06/23 05:57:32;;;;;;;26.30;24.57;;;16.90;99.90;;;;;;4993886;28;20811;-65
2021/06/23 05:59:59;;;;;;;25.10;23.40;;;17.20;99.90;;;;;;4993682;28;20454;-65
2021/06/23 06:02:26;;;;;;;25.10;23.50;;;17.10;99.90;;;;;;4993603;28;20455;-65
2021/06/23 06:04:52;;;;;;;23.70;22.20;;;17.20;99.90;;;;;;4993280;28;20814;-66
2021/06/23 06:07:19;;;;;;;24.70;22.70;;;17.50;99.90;;;;;;4993576;28;21007;-65
2021/06/23 06:09:46;;;;;;;26.40;24.57;;;17.50;99.90;;;;;;4993353;28;20450;-65
2021/06/23 06:12:12;;;;;;;24.13;22.70;;;17.40;99.90;;;;;;4993503;28;20451;-65
2021/06/23 06:14:40;;;;;;;24.63;22.93;;;17.40;99.90;;;;;;4993055;28;20478;-65
2021/06/23 06:17:07;;;;;;;25.67;23.93;;;17.10;99.90;;;;;;4993306;28;20443;-65
2021/06/23 06:19:34;;;;;;;24.50;22.73;;;17.40;99.90;;;;;;4993309;28;20940;-65
2021/06/23 06:22:01;;;;;;;24.27;22.80;;;17.60;99.90;;;;;;4992634;28;20836;-66
2021/06/23 06:24:27;;;;;;;26.43;24.53;;;17.70;99.90;;;;;;4992957;28;20478;-66
2021/06/23 06:26:55;;;;;;;27.23;25.50;;;17.60;99.90;;;;;;4993177;28;20454;-65
2021/06/23 06:29:22;;;;;;;24.87;23.17;;;17.40;99.90;;;;;;4992719;28;20924;-65
2021/06/23 06:31:50;;;;;;;25.53;23.63;;;17.40;99.90;;;;;;4992546;28;20439;-66
2021/06/23 06:34:16;;;;;;;27.60;25.30;;;17.30;99.90;;;;;;4992655;28;20489;-66
2021/06/23 06:36:43;;;;;;;25.10;23.27;;;17.60;99.90;;;;;;4992950;28;20446;-66
2021/06/23 06:39:10;;;;;;;25.20;23.10;;;17.70;99.90;;;;;;4993040;28;20434;-65
2021/06/23 06:41:37;;;;;;;25.87;24.37;;;17.90;99.90;;;;;;4992684;28;20456;-66
2021/06/23 06:44:04;;;;;;;25.43;23.70;;;17.90;99.90;;;;;;4992597;28;20467;-65
2021/06/23 06:46:31;;;;;;;24.93;23.00;;;18.00;99.90;;;;;;4992851;28;20505;-66
2021/06/23 06:48:59;;;;;;;25.07;23.47;;;18.00;99.90;;;;;;4992606;28;20478;-66
2021/06/23 06:51:25;;;;;;;25.37;23.87;;;18.20;99.90;;;;;;4992561;28;20446;-65
2021/06/23 06:53:52;;;;;;;25.67;23.93;;;18.20;99.90;;;;;;4992542;28;20443;-66
2021/06/23 06:56:18;;;;;;;25.30;23.60;;;18.20;99.90;;;;;;4991873;28;20447;-66
2021/06/23 06:58:45;;;;;;;26.10;24.40;;;18.20;99.90;;;;;;4992506;28;20446;-65
2021/06/23 07:01:12;;;;;;;27.07;25.30;;;18.40;99.90;;;;;;4992095;28;20451;-66
2021/06/23 07:03:39;;;;;;;27.13;25.27;;;18.40;99.90;;;;;;4992475;28;20447;-66
2021/06/23 07:06:07;;;;;;;26.10;24.13;;;18.60;99.90;;;;;;4992116;28;20450;-66
2021/06/23 07:08:33;;;;;;;24.90;23.27;;;18.60;99.90;;;;;;4992242;28;20490;-65
2021/06/23 07:11:00;;;;;;;25.63;23.83;;;18.40;99.90;;;;;;4992118;28;20473;-66
2021/06/23 07:13:27;;;;;;;27.33;25.60;;;18.50;99.90;;;;;;4992220;28;20462;-67
2021/06/23 07:15:53;;;;;;;26.27;24.17;;;18.50;99.90;;;;;;4991914;28;20467;-66
2021/06/23 07:18:20;;;;;;;25.37;23.67;;;18.50;99.90;;;;;;4992297;28;20928;-65
2021/06/23 07:20:47;;;;;;;27.00;25.00;;;18.50;99.90;;;;;;4992043;28;20455;-66
2021/06/23 07:23:15;;;;;;;25.57;23.93;;;18.40;99.90;;;;;;4992224;28;20947;-66
2021/06/23 07:25:42;;;;;;;27.33;25.33;;;18.40;99.90;;;;;;4991830;28;20979;-66
2021/06/23 07:28:12;;;;;;;26.70;24.70;;;18.70;99.90;;;;;;4992119;28;20485;-65
2021/06/23 07:30:43;;;;;;;27.20;25.13;;;18.80;99.90;;;;;;4991953;28;20470;-66
2021/06/23 07:33:09;;;;;;;25.10;23.23;;;18.80;99.90;;;;;;4991954;28;20845;-66
2021/06/23 07:38:22;;;;;;;26.70;24.70;;;18.90;99.90;;;;;;4992351;28;20741;-66
2021/06/23 07:40:56;;;;;;;27.23;24.90;;;19.00;99.90;;;;;;4991261;28;20454;-66
2021/06/23 07:43:23;;;;;;;26.53;24.57;;;19.20;99.90;;;;;;4991963;28;20465;-66
2021/06/23 07:45:52;;;;;;;27.13;25.23;;;19.20;99.90;;;;;;4991386;28;20470;-66
2021/06/23 07:48:21;;;;;;;28.17;26.10;;;19.30;99.90;;;;;;4988426;28;20475;-66
2021/06/23 07:50:51;;;;;;;27.17;25.50;;;19.20;99.90;;;;;;4991840;28;20451;-65
2021/06/23 07:53:24;;;;;;;23.90;22.50;;;19.30;99.90;;;;;;4992052;28;20928;-66
2021/06/23 07:55:56;;;;;;;25.60;24.07;;;19.60;99.90;;;;;;4991962;28;20475;-66
2021/06/23 08:02:01;;;;;;;26.03;24.53;;;19.90;99.90;;;;;;4972464;28;20576;-66
2021/06/23 08:09:56;;;;;;;26.57;24.87;;;19.60;99.90;;;;;;4987999;28;20816;-65
2021/06/23 08:12:27;;;;;;;25.10;23.60;;;19.60;99.90;;;;;;4995767;28;20451;-65
2021/06/23 08:14:54;;;;;;;27.73;26.03;;;19.50;99.90;;;;;;4995514;28;20834;-65
2021/06/23 08:17:21;;;;;;;26.97;25.23;;;19.10;99.90;;;;;;4995168;28;20834;-66
2021/06/23 08:19:47;;;;;;;27.50;25.40;;;18.70;99.90;;;;;;4995394;28;20445;-65
2021/06/23 08:22:14;;;;;;;27.60;25.70;;;18.80;99.90;;;;;;4995606;28;20465;-66
2021/06/23 08:24:41;;;;;;;28.10;26.23;;;18.80;99.90;;;;;;4995096;28;20479;-66
2021/06/23 08:27:09;;;;;;;27.17;25.57;;;18.90;99.90;;;;;;4995313;28;20785;-66
2021/06/23 08:29:37;;;;;;;25.50;23.70;;;19.20;99.90;;;;;;4995125;28;20478;-66
2021/06/23 08:32:04;;;;;;;26.77;24.93;;;19.20;99.90;;;;;;4995260;28;20451;-66
2021/06/23 08:34:31;;;;;;;28.70;26.67;;;19.10;99.90;;;;;;4995209;28;20478;-66
2021/06/23 08:36:58;;;;;;;27.93;26.13;;;19.20;99.90;;;;;;4994975;28;20822;-66
2021/06/23 08:39:25;;;;;;;29.13;26.57;;;19.30;99.90;;;;;;4994606;28;20442;-67
2021/06/23 08:41:52;;;;;;;26.03;24.40;;;19.20;99.90;;;;;;4994961;28;20446;-66
2021/06/23 08:44:18;;;;;;;24.53;22.90;;;19.30;99.90;;;;;;4995032;28;20462;-66
2021/06/23 08:46:50;;;;;;;28.73;26.63;;;19.50;99.90;;;;;;4995101;28;20454;-66
2021/06/23 08:49:17;;;;;;;25.97;24.20;;;19.70;99.90;;;;;;4994933;28;20482;-66
2021/06/23 08:51:45;;;;;;;27.23;25.53;;;19.60;99.90;;;;;;4994398;28;20454;-65
2021/06/23 08:54:12;;;;;;;26.33;24.63;;;19.60;99.90;;;;;;4994763;28;20466;-66
2021/06/23 08:56:39;;;;;;;28.50;26.33;;;19.70;99.90;;;;;;4994705;28;20454;-66
2021/06/23 08:59:06;;;;;;;26.03;24.40;;;19.80;99.90;;;;;;4994708;28;20442;-66
2021/06/23 09:01:33;;;;;;;28.93;27.03;;;19.70;99.90;;;;;;4994090;28;20454;-66
2021/06/23 09:04:05;;;;;;;27.57;25.47;;;19.60;99.90;;;;;;4994574;28;20478;-66
2021/06/23 09:06:43;;;;;;;26.50;24.90;;;19.70;99.90;;;;;;4994237;28;20458;-66
2021/06/23 09:09:20;;;;;;;28.37;26.33;;;19.80;99.90;;;;;;4994556;28;20485;-66
2021/06/23 09:11:47;;;;;;;27.63;25.83;;;20.00;99.90;;;;;;4994048;28;20974;-66
2021/06/23 09:14:16;;;;;;;28.50;26.37;;;19.90;99.90;;;;;;4994509;28;20475;-66
2021/06/23 09:17:04;;;;;;;29.10;26.93;;;19.70;99.90;;;;;;4994236;28;20458;-65
2021/06/23 09:19:33;;;;;;;28.83;26.70;;;19.90;99.90;;;;;;4993798;28;20451;-66
2021/06/23 09:22:00;;;;;;;28.60;26.50;;;20.00;99.90;;;;;;4994044;28;20458;-66
2021/06/23 09:24:38;;;;;;;25.83;24.03;;;20.10;99.90;;;;;;4994147;28;20479;-65
2021/06/23 09:27:19;;;;;;;25.77;24.20;;;20.50;99.90;;;;;;4994180;28;20474;-66
2021/06/23 09:29:46;;;;;;;27.47;25.77;;;20.90;99.90;;;;;;4993927;28;20517;-66
2021/06/23 09:32:13;;;;;;;28.50;26.53;;;20.90;99.90;;;;;;4993493;28;20455;-66
2021/06/23 09:34:43;;;;;;;26.23;24.37;;;20.50;99.90;;;;;;4994031;28;20466;-65
2021/06/23 09:37:27;;;;;;;27.90;25.53;;;20.40;99.90;;;;;;4994065;28;20443;-66
2021/06/23 09:40:16;;;;;;;25.53;24.13;;;20.40;99.90;;;;;;4993784;28;20850;-66
2021/06/23 09:42:44;;;;;;;23.93;22.17;;;20.30;99.90;;;;;;4993616;28;20454;-66
2021/06/23 09:45:12;;;;;;;27.20;25.70;;;20.60;99.90;;;;;;4993797;28;20519;-66
2021/06/23 09:47:40;;;;;;;29.77;27.47;;;20.70;99.90;;;;;;4993955;28;20454;-66
2021/06/23 09:50:11;;;;;;;25.57;23.97;;;20.50;99.90;;;;;;4993569;28;20478;-66
2021/06/23 09:52:51;;;;;;;25.60;23.73;;;20.80;99.90;;;;;;4993631;28;20539;-66
2021/06/23 09:55:20;;;;;;;23.13;21.63;;;20.90;99.80;;;;;;4993360;28;20475;-66
2021/06/23 09:58:06;;;;;;;23.67;22.37;;;21.30;99.70;;;;;;4993636;28;20451;-66
2021/06/23 10:00:34;;;;;;;26.37;24.50;;;21.70;98.40;;;;;;4993371;28;20932;-66
2021/06/23 10:03:03;;;;;;;27.87;26.37;;;21.80;97.50;;;;;;4993201;28;20451;-66
2021/06/23 10:05:32;;;;;;;23.23;21.63;;;21.90;97.00;;;;;;4993370;28;20458;-66
2021/06/23 10:07:58;;;;;;;24.80;23.40;;;21.90;96.60;;;;;;4993116;28;20442;-65
2021/06/23 10:10:42;;;;;;;26.60;24.67;;;22.10;96.00;;;;;;4993112;28;20485;-66
2021/06/23 10:13:10;;;;;;;25.27;23.87;;;22.20;95.70;;;;;;4993093;28;20454;-66
2021/06/23 10:15:37;;;;;;;28.20;26.20;;;22.30;95.50;;;;;;4993071;28;20498;-66
2021/06/23 10:18:05;;;;;;;27.47;25.67;;;22.00;95.40;;;;;;4993287;28;20451;-65
2021/06/23 10:20:34;;;;;;;25.40;24.00;;;21.80;95.80;;;;;;4992834;28;20487;-66
2021/06/23 10:23:03;;;;;;;28.43;26.57;;;21.80;95.70;;;;;;4993142;28;20450;-66
2021/06/23 10:25:31;;;;;;;27.30;25.53;;;21.70;96.20;;;;;;4992927;28;20478;-65
2021/06/23 10:28:00;;;;;;;28.53;26.30;;;22.10;95.50;;;;;;4993206;28;20821;-66
2021/06/23 10:30:29;;;;;;;28.13;26.43;;;21.80;95.10;;;;;;4991718;28;20482;-66
2021/06/23 10:32:57;;;;;;;27.40;25.57;;;21.60;95.30;;;;;;4992913;28;20505;-66
2021/06/23 10:35:24;;;;;;;27.07;25.37;;;21.80;95.60;;;;;;4992837;28;20904;-66
2021/06/23 10:37:55;;;;;;;26.50;24.53;;;22.00;95.30;;;;;;4992879;28;20443;-65
2021/06/23 10:40:23;;;;;;;29.03;27.13;;;21.90;94.60;;;;;;4992065;28;20933;-66
2021/06/23 10:42:49;;;;;;;27.50;26.00;;;21.50;95.20;;;;;;4992635;28;20447;-66
2021/06/23 10:45:17;;;;;;;27.80;26.20;;;21.50;94.90;;;;;;4992471;28;20473;-66
2021/06/23 10:47:46;;;;;;;28.63;26.80;;;21.20;95.90;;;;;;4992644;28;20509;-66
2021/06/23 10:50:32;;;;;;;27.33;25.63;;;21.30;95.40;;;;;;4992078;28;20479;-65
2021/06/23 10:53:01;;;;;;;29.07;27.00;;;21.10;95.50;;;;;;4992663;28;20537;-66
2021/06/23 10:55:45;;;;;;;26.90;25.50;;;21.30;95.70;;;;;;4992634;28;20470;-65
2021/06/23 10:58:13;;;;;;;28.43;26.60;;;21.40;96.10;;;;;;4992675;28;20447;-65
2021/06/23 11:00:44;;;;;;;26.23;24.77;;;21.50;95.20;;;;;;4991672;28;20435;-66
2021/06/23 11:03:13;;;;;;;26.50;24.77;;;21.50;94.80;;;;;;4992455;28;20455;-66
2021/06/23 11:05:43;;;;;;;26.33;24.83;;;21.50;95.20;;;;;;4992230;28;20529;-66
2021/06/23 11:08:29;;;;;;;27.90;26.20;;;22.00;94.30;;;;;;4992463;28;20439;-66
2021/06/23 11:10:57;;;;;;;25.60;23.87;;;22.20;93.40;;;;;;4991982;28;20469;-66
2021/06/23 11:13:25;;;;;;;25.77;24.33;;;22.50;92.90;;;;;;4992234;28;20447;-65
2021/06/23 11:15:54;;;;;;;26.60;25.00;;;22.80;92.20;;;;;;4992188;28;20470;-65
2021/06/23 11:18:24;;;;;;;26.90;25.20;;;22.90;91.00;;;;;;4992256;28;20473;-66
2021/06/23 11:20:52;;;;;;;26.70;24.83;;;22.60;90.70;;;;;;4991776;28;20478;-66
2021/06/23 11:23:43;;;;;;;28.07;24.87;;;22.60;90.60;;;;;;4992211;28;20447;-65
2021/06/23 11:26:30;;;;;;;26.60;24.80;;;22.80;90.10;;;;;;4992748;28;20466;-65
2021/06/23 11:28:58;;;;;;;34.57;24.67;;;22.90;89.60;;;;;;4991751;28;20494;-66
2021/06/23 11:31:43;;;;;;;25.10;23.90;;;23.10;87.70;;;;;;4991944;28;20447;-66
2021/06/23 11:34:10;;;;;;;26.80;25.27;;;23.60;86.30;;;;;;4992055;28;20823;-66
2021/06/23 11:36:37;;;;;;;27.40;25.90;;;23.70;83.20;;;;;;4992073;28;20443;-66
2021/06/23 11:39:07;;;;;;;27.03;25.43;;;23.50;82.10;;;;;;4991812;28;20455;-66
2021/06/23 11:41:33;;;;;;;27.00;25.50;;;23.80;80.80;;;;;;4993063;28;20447;-66
2021/06/23 11:44:00;;;;;;;26.37;24.73;;;24.30;80.20;;;;;;4995960;28;20471;-66
2021/06/23 11:46:27;;;;;;;29.07;27.37;;;24.10;78.50;;;;;;4995964;28;20948;-66
2021/06/23 11:48:54;;;;;;;25.93;24.57;;;23.80;77.70;;;;;;4995780;28;20540;-66
2021/06/23 11:51:23;;;;;;;27.40;25.67;;;23.40;79.50;;;;;;4995667;28;20447;-66
2021/06/23 11:53:50;;;;;;;26.20;24.67;;;23.40;79.80;;;;;;4995718;28;20458;-66
2021/06/23 11:56:18;;;;;;;30.60;28.60;;;23.20;80.30;;;;;;4995993;28;20447;-65
2021/06/23 11:58:45;;;;;;;28.10;26.57;;;23.10;81.20;;;;;;4995794;28;20442;-65
2021/06/23 12:01:11;;;;;;;27.17;25.77;;;22.80;81.50;;;;;;4976157;28;20448;-66
2021/06/23 12:03:41;;;;;;;29.37;27.37;;;23.00;82.00;;;;;;4987798;28;20458;-66
2021/06/23 12:06:08;;;;;;;28.87;26.90;;;22.70;82.50;;;;;;4995072;28;20447;-66
2021/06/23 12:08:34;;;;;;;27.93;26.27;;;22.60;85.40;;;;;;4995706;28;20932;-66
2021/06/23 12:11:01;;;;;;;29.40;27.40;;;22.50;84.10;;;;;;4995360;28;20482;-65
2021/06/23 12:13:29;;;;;;;27.90;26.10;;;22.50;84.30;;;;;;4995527;28;20442;-66
2021/06/23 12:15:56;;;;;;;27.23;25.60;;;22.50;85.00;;;;;;4995128;28;20466;-66
2021/06/23 12:18:22;;;;;;;28.37;26.33;;;23.20;84.10;;;;;;4995500;28;20976;-66
2021/06/23 12:20:49;;;;;;;27.80;26.23;;;23.30;81.00;;;;;;4995307;28;20435;-66
2021/06/23 12:23:16;;;;;;;28.80;26.70;;;23.70;80.90;;;;;;4995314;28;20446;-66
2021/06/23 12:25:45;;;;;;;29.67;27.97;;;24.20;78.50;;;;;;4994912;28;20474;-66
2021/06/23 12:28:13;;;;;;;27.67;25.83;;;24.70;75.90;;;;;;4995321;28;20451;-66
2021/06/23 12:30:43;;;;;;;30.17;28.10;;;25.20;74.20;;;;;;4994828;28;20843;-65
2021/06/23 12:33:11;;;;;;;28.33;26.53;;;26.10;69.20;;;;;;4995236;28;20455;-66
2021/06/23 12:35:38;;;;;;;30.00;28.00;;;26.50;66.40;;;;;;4994854;28;20481;-64
2021/06/23 12:38:07;;;;;;;30.33;28.53;;;26.60;64.30;;;;;;4995052;28;20447;-66
2021/06/23 12:40:34;;;;;;;30.23;28.03;;;27.20;62.60;;;;;;4994974;28;20865;-64
2021/06/23 12:43:00;;;;;;;30.13;28.30;;;26.90;60.50;;;;;;4994985;28;20921;-66
2021/06/23 12:45:27;;;;;;;32.33;30.33;;;25.60;61.00;;;;;;4994664;28;20849;-66
2021/06/23 12:47:55;;;;;;;30.10;28.30;;;24.70;64.30;;;;;;4994951;28;20450;-66